Terminal Aerodrome Forecast
Issued by NWS

Home | Current Version | Previous Version | Graphics & Text | Print | Product List | Glossary On
Versions: 1 2 3 4 5 6 7 8 9 10 11 12 13 14 15 16 17 18 19 20 21 22 23
000
FTUS41 KCLE 241741
TAFFDY
TAF
KFDY 241741Z 2418/2518 10010KT P6SM BKN040 OVC070
      TEMPO 2420/2422 3SM -TSRA OVC025CB
     FM242300 07012KT 5SM -SHRA BR OVC015
     FM250100 09010KT 3SM -SHRA OVC008
     FM250700 15005KT 5SM BR VCSH OVC004
     FM251500 25005KT P6SM VCSH OVC008
     FM251700 27008KT P6SM OVC015=

USA.gov is the U.S. government's official web portal to all federal, state and local government web resources and services.